首页
METAR-TAF:

METAR-TAF

机场 :

巴尼亚卢卡, 波斯尼亚和黑塞哥维那

纬度: 44-47N, 经度: 017-13E, 海拔: 156米

当前天气观测

该预报发布于28分钟前的08:30 UTC
风速3节,风向多变
温度 30°C
湿度 62%
气压 1020 hPa
能见度10公里或以上
1500米以下无云,无积雨云

METAR: LQBK 270830Z VRB03KT CAVOK 30/22 Q1020 NOSIG

时间: 10:58 (08:58 UTC)

预报

该预报发布于3小时和58分钟前的05:00 UTC
预报有效从27日的 06点(UTC)到 28日的 06点(UTC)
风速5节,风向南转西南
能见度10公里或以上
1500米以下无云,无积雨云
几率 40% :
短暂存在
从 27日的 21点(UTC)到 28日的 03点(UTC)
风速15节,风向北转西北,有时为25节阵风
能見度: 4000
少量云层高于3500英尺, 积雨云.
散云层高于4000英尺
雷暴, 雨
短暂存在
从 28日的 03点(UTC)到 28日的 06点(UTC)
风速10节,风向北转西北

TAF: LQBK 270500Z 2706/2806 20005KT CAVOK TX33/2714Z TN20/2804Z PROB40 TEMPO 2721/2803 34015G25KT 4000 TSRA FEW035CB SCT040 TEMPO 2803/2806 34010KT

超过4000个机场的气象观测和天气预报(METAR&TAF报告)。

可查询的气象台以黄色和红色小点在地图上表示。

将鼠标移到小点上方,可查看气象台名称。

然后点击查看天气观测和预报。

如需切换地图:点击带黑十字的绿色按钮放大地图;点击带横线的绿色按钮缩小地图;或者点击绿色箭头查看邻近地区的地图。


METAR-TAF: